createdAt,value
2019-01-29T00:01:15.002Z,2.80
2019-01-29T00:03:44.333Z,3.10
2019-01-29T00:06:11.045Z,3.40
2019-01-29T00:08:37.479Z,3.17
2019-01-29T00:11:03.972Z,3.10
2019-01-29T00:13:30.486Z,3.17
2019-01-29T00:15:57.004Z,3.50
2019-01-29T00:18:23.498Z,3.37
2019-01-29T00:20:55.179Z,2.63
2019-01-29T00:23:21.804Z,3.20
2019-01-29T00:25:48.303Z,3.27
2019-01-29T00:28:14.929Z,3.30
2019-01-29T00:30:41.492Z,3.53
2019-01-29T00:33:08.497Z,3.27
2019-01-29T00:35:40.926Z,3.10
2019-01-29T00:38:07.464Z,3.30
2019-01-29T00:40:33.989Z,3.00
2019-01-29T00:43:00.617Z,3.20
2019-01-29T00:45:27.044Z,3.67
2019-01-29T00:47:53.608Z,3.07
2019-01-29T00:50:20.134Z,3.70
2019-01-29T00:52:47.707Z,3.27
2019-01-29T00:55:14.332Z,3.53
2019-01-29T00:57:40.766Z,3.67
2019-01-29T01:00:09.671Z,3.97
2019-01-29T01:02:36.248Z,4.00
2019-01-29T01:05:03.855Z,4.47
2019-01-29T01:07:30.412Z,4.10
2019-01-29T01:09:57.528Z,3.93
2019-01-29T01:12:24.166Z,3.70
2019-01-29T01:14:50.726Z,4.10
2019-01-29T01:17:17.353Z,3.80
2019-01-29T01:19:43.923Z,4.57
2019-01-29T01:22:13.269Z,4.07
2019-01-29T01:24:39.957Z,5.03
2019-01-29T01:27:06.629Z,4.60
2019-01-29T01:29:33.124Z,3.83
2019-01-29T01:31:59.770Z,4.30
2019-01-29T01:34:26.449Z,3.80
2019-01-29T01:36:55.202Z,4.23
2019-01-29T01:39:21.705Z,4.23
2019-01-29T01:41:48.204Z,4.10
2019-01-29T01:44:14.873Z,3.87
2019-01-29T01:46:41.459Z,4.60
2019-01-29T01:49:08.071Z,4.10
2019-01-29T01:51:34.662Z,4.33
2019-01-29T01:54:01.209Z,4.40
2019-01-29T01:56:27.718Z,4.37
2019-01-29T01:58:54.156Z,3.60
2019-01-29T02:01:20.551Z,4.00
2019-01-29T02:03:47.004Z,3.80
2019-01-29T02:06:13.423Z,3.30
2019-01-29T02:08:39.904Z,3.43
2019-01-29T02:11:09.237Z,3.53
2019-01-29T02:13:35.824Z,3.73
2019-01-29T02:16:02.326Z,3.40
2019-01-29T02:18:38.818Z,3.97
2019-01-29T02:21:05.366Z,3.73
2019-01-29T02:23:32.258Z,4.33
2019-01-29T02:25:58.905Z,4.27
2019-01-29T02:28:25.418Z,4.20
2019-01-29T02:30:51.930Z,4.53
2019-01-29T02:33:18.452Z,3.53
2019-01-29T02:35:44.908Z,3.87
2019-01-29T02:38:11.483Z,3.67
2019-01-29T02:40:38.020Z,4.13
2019-01-29T02:43:04.477Z,4.20
2019-01-29T02:45:31.102Z,4.60
2019-01-29T02:47:57.732Z,3.57
2019-01-29T02:50:24.219Z,4.20
2019-01-29T02:52:50.878Z,4.40
2019-01-29T02:55:17.740Z,4.77
2019-01-29T02:57:44.288Z,4.90
2019-01-29T03:00:12.717Z,4.87
2019-01-29T03:02:39.269Z,6.13
2019-01-29T03:05:06.759Z,5.80
2019-01-29T03:07:33.364Z,5.90
2019-01-29T03:10:00.430Z,6.37
2019-01-29T03:12:27.284Z,6.60
2019-01-29T03:14:53.848Z,6.13
2019-01-29T03:17:20.388Z,6.10
2019-01-29T03:19:46.918Z,5.77
2019-01-29T03:22:13.619Z,5.57
2019-01-29T03:24:43.320Z,4.73
2019-01-29T03:27:10.109Z,5.33
2019-01-29T03:29:36.684Z,4.50
2019-01-29T03:32:03.247Z,4.80
2019-01-29T03:34:29.886Z,4.67
2019-01-29T03:36:56.553Z,4.00
2019-01-29T03:39:23.099Z,4.47
2019-01-29T03:41:49.504Z,4.53
2019-01-29T03:44:16.355Z,4.93
2019-01-29T03:46:58.341Z,4.30
2019-01-29T03:49:24.803Z,4.40
2019-01-29T03:51:51.244Z,4.77
2019-01-29T03:54:19.873Z,4.70
2019-01-29T03:56:46.348Z,4.70
2019-01-29T03:59:12.971Z,4.90
2019-01-29T04:01:39.616Z,4.97
2019-01-29T04:04:06.109Z,4.93
2019-01-29T04:06:42.609Z,5.00
2019-01-29T04:09:09.266Z,5.70
2019-01-29T04:11:35.809Z,5.47
2019-01-29T04:14:02.833Z,6.37
2019-01-29T04:16:29.837Z,5.40
2019-01-29T04:18:58.132Z,6.13
2019-01-29T04:21:24.936Z,5.67
2019-01-29T04:23:52.582Z,6.00
2019-01-29T04:26:21.201Z,5.90
2019-01-29T04:28:47.759Z,6.13
2019-01-29T04:31:30.590Z,5.73
2019-01-29T04:33:57.145Z,6.33
2019-01-29T04:36:23.725Z,6.50
2019-01-29T04:39:14.775Z,7.03
2019-01-29T04:41:41.510Z,7.00
2019-01-29T04:44:18.161Z,7.50
2019-01-29T04:46:44.715Z,7.60
2019-01-29T04:49:11.306Z,7.30
2019-01-29T04:51:37.916Z,8.03
2019-01-29T04:54:04.630Z,8.17
2019-01-29T04:56:31.564Z,8.30
2019-01-29T04:58:58.490Z,8.60
2019-01-29T05:01:25.066Z,9.40
2019-01-29T05:03:51.669Z,9.07
2019-01-29T05:06:18.413Z,9.00
2019-01-29T05:08:44.939Z,8.53
2019-01-29T05:11:11.504Z,8.33
2019-01-29T05:13:37.960Z,9.67
2019-01-29T05:16:04.278Z,8.97
2019-01-29T05:18:32.159Z,8.47
2019-01-29T05:20:58.878Z,8.63
2019-01-29T05:23:25.219Z,8.63
2019-01-29T05:25:51.448Z,8.43
2019-01-29T05:28:17.780Z,8.03
2019-01-29T05:30:44.113Z,7.47
2019-01-29T05:33:10.773Z,8.23
2019-01-29T05:35:37.164Z,7.73
2019-01-29T05:38:04.252Z,8.40
2019-01-29T05:40:30.778Z,8.07
2019-01-29T05:42:57.081Z,8.00
2019-01-29T05:45:23.729Z,8.27
2019-01-29T05:47:50.092Z,8.10
2019-01-29T05:50:16.605Z,7.73
2019-01-29T05:52:46.013Z,8.03
2019-01-29T05:55:13.203Z,7.70
2019-01-29T05:57:39.847Z,7.70
2019-01-29T06:00:08.317Z,7.50
2019-01-29T06:02:34.921Z,7.50
2019-01-29T06:05:01.313Z,7.30
2019-01-29T06:07:27.874Z,7.23
2019-01-29T06:09:54.272Z,7.10
2019-01-29T06:12:20.577Z,7.20
2019-01-29T06:14:46.933Z,6.60
2019-01-29T06:17:13.205Z,7.07
2019-01-29T06:19:39.422Z,6.80
2019-01-29T06:22:05.770Z,6.73
2019-01-29T06:24:32.037Z,6.37
2019-01-29T06:30:12.397Z,6.30
2019-01-29T06:32:39.719Z,6.73
2019-01-29T06:35:16.728Z,6.77
2019-01-29T06:40:32.623Z,6.57
2019-01-29T06:42:59.319Z,6.73
2019-01-29T06:45:31.036Z,7.20
2019-01-29T06:48:04.302Z,6.13
2019-01-29T06:50:48.074Z,7.23
2019-01-29T06:53:35.633Z,6.43
2019-01-29T06:56:40.600Z,6.83
2019-01-29T06:59:40.110Z,6.27
2019-01-29T07:02:08.189Z,6.70
2019-01-29T07:04:35.367Z,6.80
2019-01-29T07:07:42.770Z,6.50
2019-01-29T07:10:13.341Z,6.30
2019-01-29T07:12:39.982Z,6.40
2019-01-29T07:15:24.390Z,6.70
2019-01-29T07:18:05.569Z,7.23
2019-01-29T07:20:55.193Z,6.87
2019-01-29T07:23:26.485Z,7.57
2019-01-29T07:25:59.983Z,7.00
2019-01-29T07:28:27.993Z,6.80
2019-01-29T07:30:55.248Z,6.80
2019-01-29T07:33:54.581Z,7.63
2019-01-29T07:36:21.342Z,7.37
2019-01-29T07:38:48.250Z,7.27
2019-01-29T07:41:14.970Z,7.90
2019-01-29T07:43:59.442Z,7.67
2019-01-29T07:46:36.158Z,7.20
2019-01-29T07:49:07.466Z,7.83
2019-01-29T07:54:50.986Z,6.80
2019-01-29T07:57:12.536Z,7.60
2019-01-29T07:59:43.539Z,7.33
2019-01-29T08:02:12.288Z,7.13
2019-01-29T08:04:49.532Z,7.33
2019-01-29T08:07:31.425Z,7.90
2019-01-29T08:10:01.862Z,7.63
2019-01-29T08:12:28.848Z,7.53
2019-01-29T08:14:55.631Z,7.77
2019-01-29T13:32:46.081Z,4.27
2019-01-29T13:35:12.918Z,4.10
2019-01-29T13:37:39.428Z,4.80
2019-01-29T13:40:06.362Z,4.77
2019-01-29T13:42:32.868Z,4.47
2019-01-29T13:44:59.299Z,4.90
2019-01-29T13:47:25.762Z,3.37
2019-01-29T13:49:52.251Z,3.93
2019-01-29T13:52:18.492Z,4.00
2019-01-29T13:54:45.231Z,4.33
2019-01-29T13:57:11.715Z,4.20
2019-01-29T13:59:37.974Z,3.60
2019-01-29T14:02:04.424Z,3.63
2019-01-29T14:04:53.798Z,3.83
2019-01-29T14:07:41.176Z,4.40
2019-01-29T14:10:32.509Z,4.57
2019-01-29T14:13:04.599Z,4.37
2019-01-29T14:15:52.401Z,4.93
2019-01-29T14:26:47.849Z,3.80
2019-01-29T14:29:13.720Z,3.43
2019-01-29T14:31:39.978Z,3.90
2019-01-29T14:34:06.092Z,3.57
2019-01-29T14:36:32.221Z,3.00
2019-01-29T14:39:26.857Z,3.40
2019-01-29T14:41:53.100Z,3.53
2019-01-29T14:44:23.769Z,3.27
2019-01-29T14:46:49.887Z,3.23
2019-01-29T14:49:15.995Z,3.00
2019-01-29T14:51:42.095Z,2.80
2019-01-29T14:54:08.407Z,2.97
2019-01-29T14:56:34.616Z,3.00
2019-01-29T14:59:01.047Z,2.93
2019-01-29T15:15:16.146Z,3.10
2019-01-29T21:26:33.041Z,4.87
2019-01-29T21:29:24.723Z,7.40
2019-01-29T21:31:53.340Z,6.43
2019-01-29T21:34:32.662Z,11.60
2019-01-29T21:37:00.310Z,8.83
2019-01-29T21:39:36.675Z,18.57
2019-01-29T21:42:03.368Z,10.67
2019-01-29T21:44:50.122Z,11.03
2019-01-29T21:47:16.828Z,8.70
2019-01-29T21:49:43.575Z,10.23
2019-01-29T21:52:19.235Z,9.53
2019-01-29T21:54:45.871Z,9.67
2019-01-29T21:57:20.527Z,15.00
2019-01-29T22:00:34.070Z,10.00
2019-01-29T22:03:00.679Z,8.67
2019-01-29T22:05:59.616Z,8.43
2019-01-29T22:08:24.241Z,7.37
2019-01-29T22:11:00.855Z,8.63
2019-01-29T22:13:27.733Z,8.40
2019-01-29T22:15:54.401Z,8.37
2019-01-29T22:18:21.118Z,9.07
2019-01-29T22:20:47.740Z,8.30
2019-01-29T22:23:22.551Z,8.53
2019-01-29T22:25:49.512Z,8.27
2019-01-29T22:28:19.236Z,9.30
2019-01-29T22:30:45.875Z,8.50
2019-01-29T22:33:12.291Z,8.87
2019-01-29T22:35:38.870Z,8.43
2019-01-29T22:38:05.391Z,8.53
2019-01-29T22:40:34.072Z,8.37
2019-01-29T22:43:00.725Z,8.40
2019-01-29T22:45:27.478Z,8.03
2019-01-29T22:47:58.198Z,7.57
2019-01-29T22:50:28.777Z,8.40
2019-01-29T22:52:55.336Z,7.87
2019-01-29T22:55:21.917Z,7.93
2019-01-29T22:57:48.457Z,7.60
2019-01-29T23:00:26.766Z,7.47
2019-01-29T23:02:53.334Z,8.47
2019-01-29T23:05:19.789Z,9.83
2019-01-29T23:07:46.136Z,7.77
2019-01-29T23:10:14.193Z,8.27
2019-01-29T23:12:40.916Z,7.77
2019-01-29T23:15:08.814Z,7.77
2019-01-29T23:17:35.133Z,8.83
2019-01-29T23:20:01.650Z,8.70
2019-01-29T23:22:27.909Z,7.53
2019-01-29T23:25:00.303Z,8.73
2019-01-29T23:27:26.541Z,8.10
2019-01-29T23:29:52.978Z,8.03
2019-01-29T23:32:19.485Z,7.97
2019-01-29T23:34:46.050Z,7.50
2019-01-29T23:37:12.685Z,7.77
2019-01-29T23:39:39.165Z,6.63
2019-01-29T23:42:05.528Z,6.63
2019-01-29T23:44:31.942Z,7.50
2019-01-29T23:46:58.463Z,7.10
2019-01-29T23:49:24.807Z,6.40
2019-01-29T23:51:51.156Z,6.93
2019-01-29T23:54:18.673Z,7.33
2019-01-29T23:56:45.084Z,7.10
2019-01-29T23:59:11.358Z,7.57
